ELY1118 KMIA-LLBG
Flight info
| Callsign | ELY1118 |
|---|---|
| Flight time | N/A |
| Altitude | 31000 |
| Route | FOLZZ3 SNAGY/M083F310 DCT ONGOT DCT DRYED/M083F330 M201 CARAC/N0485F330 DCT PORTI/M083F340 DCT 47N050W 49N040W 51N030W 52N020W DCT LIMRI DCT XETBO/N0481F350 DCT UNLID/M083F350 DCT ARKIL/N0482F350 DCT LIZAD DCT JSY DCT TURDU DCT TADUP DCT TEPRI UN491 POGZI DCT GELTA DCT LUVAL/N0470F370 DCT BEGAR DCT TRA DCT GAMSA DCT GEDSO DCT VEKEN DCT NEMEK DCT TUPUS DCT MEDUX UM867 KOGAT DCT ERANA DCT TSL UN130 MES UL609 ALKIS L609 ZUKKO |
| Aircraft | B772/H-SDE2E3FGHIJ4J5LM1OP2RVWXY/LB1D1 |
Departure
| Time | N/A |
|---|---|
| Airport | Miami International Airport (KMIA) |
Arrival
| Time | 2026-05-04 11:33 |
|---|---|
| Airport | Ben Gurion International Airport (LLBG) |
| Time | Latitude | Longitude | Altitude | Speed | Heading |
|---|---|---|---|---|---|
| 2026-05-04 11:16 | 32.45456 | 34.08289 | 11321 ft | 348 kts | 140° |
| 2026-05-04 11:16 | 32.43800 | 34.10373 | 11050 ft | 345 kts | 136° |
| 2026-05-04 11:16 | 32.42573 | 34.12805 | 10772 ft | 348 kts | 113° |
| 2026-05-04 11:17 | 32.42031 | 34.15562 | 10551 ft | 340 kts | 105° |
| 2026-05-04 11:17 | 32.41582 | 34.18277 | 10293 ft | 333 kts | 105° |
| 2026-05-04 11:19 | 32.38462 | 34.35875 | 8806 ft | 296 kts | 106° |
| 2026-05-04 11:19 | 32.38031 | 34.38252 | 8690 ft | 295 kts | 106° |
| 2026-05-04 11:19 | 32.37601 | 34.40622 | 8578 ft | 295 kts | 106° |
| 2026-05-04 11:19 | 32.37171 | 34.42989 | 8464 ft | 294 kts | 106° |
| 2026-05-04 11:20 | 32.36742 | 34.45352 | 8345 ft | 294 kts | 106° |
| 2026-05-04 11:20 | 32.36312 | 34.47719 | 8232 ft | 294 kts | 106° |
| 2026-05-04 11:20 | 32.36026 | 34.49287 | 8161 ft | 294 kts | 106° |
| 2026-05-04 11:20 | 32.35784 | 34.50617 | 8098 ft | 295 kts | 106° |
| 2026-05-04 11:22 | 32.30520 | 34.65997 | 6653 ft | 286 kts | 117° |
| 2026-05-04 11:22 | 32.29733 | 34.68155 | 6441 ft | 286 kts | 117° |
| 2026-05-04 11:23 | 32.28947 | 34.70312 | 6201 ft | 286 kts | 117° |
| 2026-05-04 11:23 | 32.28163 | 34.72467 | 5994 ft | 284 kts | 117° |
| 2026-05-04 11:24 | 32.23991 | 34.85378 | 4744 ft | 276 kts | 108° |
| 2026-05-04 11:25 | 32.23450 | 34.87537 | 4529 ft | 273 kts | 109° |
| 2026-05-04 11:25 | 32.22904 | 34.89667 | 4324 ft | 270 kts | 109° |
| 2026-05-04 11:25 | 32.22361 | 34.91771 | 4139 ft | 263 kts | 108° |
| 2026-05-04 11:26 | 32.21363 | 34.95612 | 3723 ft | 226 kts | 110° |
| 2026-05-04 11:27 | 32.13667 | 34.97701 | 2747 ft | 169 kts | 214° |
| 2026-05-04 11:28 | 32.12685 | 34.97077 | 2646 ft | 158 kts | 215° |
| 2026-05-04 11:28 | 32.11708 | 34.96443 | 2452 ft | 158 kts | 216° |
| 2026-05-04 11:28 | 32.10787 | 34.95847 | 2253 ft | 144 kts | 216° |
| 2026-05-04 11:28 | 32.09930 | 34.95289 | 2063 ft | 142 kts | 216° |
| 2026-05-04 11:29 | 32.09037 | 34.94705 | 1894 ft | 149 kts | 216° |
| 2026-05-04 11:29 | 32.08168 | 34.94144 | 1678 ft | 133 kts | 215° |
| 2026-05-04 11:29 | 32.07403 | 34.93647 | 1498 ft | 124 kts | 215° |
| 2026-05-04 11:29 | 32.06643 | 34.93154 | 1319 ft | 121 kts | 216° |
| 2026-05-04 11:31 | 32.01304 | 34.89698 | 124 ft | 119 kts | 214° |
| 2026-05-04 11:33 | 32.00203 | 34.88435 | 121 ft | 19 kts | 302° |
| 2026-05-04 11:33 | 32.00272 | 34.88303 | 123 ft | 19 kts | 301° |
| 2026-05-04 11:33 | 32.00337 | 34.88178 | 121 ft | 14 kts | 301° |
| 2026-05-04 11:34 | 32.00388 | 34.88080 | 119 ft | 14 kts | 301° |
| 2026-05-04 11:34 | 32.00439 | 34.87982 | 120 ft | 14 kts | 301° |
| 2026-05-04 11:34 | 32.00485 | 34.87886 | 123 ft | 11 kts | 284° |
| 2026-05-04 11:34 | 32.00441 | 34.87817 | 120 ft | 11 kts | 212° |
| 2026-05-04 11:35 | 32.00380 | 34.87765 | 119 ft | 11 kts | 232° |
| 2026-05-04 11:35 | 32.00368 | 34.87701 | 121 ft | 7 kts | 271° |
| 2026-05-04 11:35 | 32.00370 | 34.87664 | 123 ft | 3 kts | 272° |
| 2026-05-04 11:35 | 32.00370 | 34.87649 | 122 ft | 2 kts | 272° |
| 2026-05-04 11:36 | 32.00370 | 34.87637 | 124 ft | 1 kts | 272° |
| 2026-05-04 11:36 | 32.00371 | 34.87631 | 124 ft | 1 kts | 272° |
| 2026-05-04 11:36 | 32.00371 | 34.87629 | 124 ft | 0 kts | 272° |